West Petersburg, Indiana
Current Conditions -  °F | °C
As of 10:55 PM on Monday 20 Oct 2014 (Local Time) from KDCY Reporting Station
Clear Clear  
Wind Chill: 54°   Ceiling: Unl
Heat Index: 54°   Visibility: 10mi
Dew Point: 46°   Wind: 6mph
Humidity: 74%   Direction: 300°WNW
Pressure: 29.97"   Gusts: NA
Location:  38.4723°N, 87.3105°W
Report Text: KDCY 210355Z AUTO 30005KT 10SM CLR 12/08 A2997 RMK AO2 T01210075
Loading
Personal Weather Stations






























Interactive Weather Map
Tropical Storm Tracking
New forecast layout! Learn more

10-Day Weather Forecast

Advertisements
Track Severe Weather on mobile